Sao Raimundo das Mangabeiras, Brazil
Current Conditions -  °F | °C
As of 2:00 PM on Monday 24 Nov 2014 (Local Time) from SBIZ Reporting Station
Broken Clouds Broken Clouds  
Wind Chill: 93°   Ceiling: 2300
Heat Index: 99°   Visibility: 6mi
Dew Point: 70°   Wind: 10mph
Humidity: 46%   Direction: 140°SE
Pressure: 29.83"   Gusts: NA
Location:  7.02°S, 45.48°W
Report Text: SBIZ 241700Z 14009KT 9999 BKN023 34/21 Q1010
Loading
Personal Weather Stations






























Interactive Weather Map New forecast layout! Learn more

10-Day Weather Forecast

Advertisements
Track Severe Weather on mobile